createdAt,value
2018-01-15T00:00:49.585Z,1.40
2018-01-15T00:03:17.392Z,1.10
2018-01-15T00:05:45.910Z,1.40
2018-01-15T00:08:13.687Z,2.70
2018-01-15T00:10:41.449Z,1.60
2018-01-15T00:13:09.228Z,1.13
2018-01-15T00:15:37.033Z,1.87
2018-01-15T00:18:05.655Z,1.60
2018-01-15T00:20:33.435Z,1.23
2018-01-15T00:23:01.267Z,1.17
2018-01-15T00:25:29.070Z,0.90
2018-01-15T00:27:56.853Z,1.53
2018-01-15T00:30:25.411Z,1.07
2018-01-15T00:32:53.215Z,1.73
2018-01-15T00:35:21.761Z,1.40
2018-01-15T00:37:49.593Z,1.40
2018-01-15T00:40:17.408Z,1.57
2018-01-15T00:42:45.242Z,1.40
2018-01-15T00:45:13.051Z,1.60
2018-01-15T00:47:40.832Z,1.80
2018-01-15T00:50:09.367Z,2.07
2018-01-15T00:52:37.282Z,3.43
2018-01-15T00:55:05.122Z,3.00
2018-01-15T00:57:33.703Z,1.70
2018-01-15T01:00:01.505Z,1.30
2018-01-15T01:02:29.315Z,2.03
2018-01-15T01:04:57.657Z,1.70
2018-01-15T01:07:25.455Z,1.80
2018-01-15T01:09:53.271Z,2.00
2018-01-15T01:12:21.071Z,1.93
2018-01-15T01:14:48.916Z,2.10
2018-01-15T01:17:16.761Z,1.77
2018-01-15T01:19:44.577Z,1.40
2018-01-15T01:22:12.396Z,1.37
2018-01-15T01:24:40.931Z,1.30
2018-01-15T01:27:08.705Z,1.33
2018-01-15T01:29:36.463Z,2.30
2018-01-15T01:32:04.251Z,1.30
2018-01-15T01:34:32.805Z,1.80
2018-01-15T01:37:00.576Z,1.73
2018-01-15T01:39:28.388Z,1.50
2018-01-15T01:41:56.170Z,0.97
2018-01-15T01:44:24.014Z,0.97
2018-01-15T01:46:51.926Z,0.97
2018-01-15T01:49:19.732Z,1.20
2018-01-15T01:51:48.292Z,1.20
2018-01-15T01:54:16.146Z,1.10
2018-01-15T01:56:43.928Z,0.90
2018-01-15T01:59:11.727Z,0.97
2018-01-15T02:01:39.567Z,0.87
2018-01-15T02:04:07.482Z,0.80
2018-01-15T02:06:35.330Z,1.17
2018-01-15T02:09:03.192Z,1.70
2018-01-15T02:11:30.979Z,1.27
2018-01-15T02:13:58.849Z,1.43
2018-01-15T02:16:26.659Z,1.70
2018-01-15T02:18:54.494Z,1.53
2018-01-15T02:21:22.334Z,1.40
2018-01-15T02:23:50.116Z,2.10
2018-01-15T02:26:17.984Z,2.20
2018-01-15T02:28:45.824Z,1.30
2018-01-15T02:31:13.635Z,1.30
2018-01-15T02:33:41.522Z,1.40
2018-01-15T02:36:10.100Z,1.60
2018-01-15T02:38:37.956Z,2.00
2018-01-15T02:41:05.734Z,1.43
2018-01-15T02:43:34.291Z,1.30
2018-01-15T02:46:02.090Z,1.10
2018-01-15T02:48:30.631Z,1.90
2018-01-15T02:50:58.466Z,1.93
2018-01-15T02:53:26.264Z,1.80
2018-01-15T02:55:54.059Z,1.87
2018-01-15T02:58:22.594Z,1.53
2018-01-15T03:00:50.357Z,1.80
2018-01-15T03:03:18.135Z,2.07
2018-01-15T03:05:45.936Z,1.77
2018-01-15T03:08:14.476Z,1.40
2018-01-15T03:10:42.271Z,1.40
2018-01-15T03:13:10.063Z,1.30
2018-01-15T03:15:38.610Z,1.30
2018-01-15T03:18:06.431Z,1.70
2018-01-15T03:20:34.235Z,2.13
2018-01-15T03:23:02.076Z,1.53
2018-01-15T03:25:29.856Z,2.30
2018-01-15T03:27:57.667Z,1.50
2018-01-15T03:30:26.232Z,1.37
2018-01-15T03:32:54.797Z,1.50
2018-01-15T03:35:22.587Z,1.17
2018-01-15T03:37:51.136Z,1.57
2018-01-15T03:40:18.959Z,1.20
2018-01-15T03:42:46.759Z,1.30
2018-01-15T03:45:14.611Z,1.03
2018-01-15T03:47:42.384Z,1.03
2018-01-15T03:50:10.212Z,1.20
2018-01-15T03:52:37.982Z,1.20
2018-01-15T03:55:05.785Z,1.30
2018-01-15T03:57:33.569Z,1.40
2018-01-15T04:00:01.391Z,1.10
2018-01-15T04:02:29.256Z,1.10
2018-01-15T04:04:57.051Z,1.00
2018-01-15T04:07:24.808Z,0.97
2018-01-15T04:09:52.596Z,1.10
2018-01-15T04:12:20.367Z,1.20
2018-01-15T04:14:48.132Z,1.20
2018-01-15T04:17:15.902Z,0.80
2018-01-15T04:19:44.438Z,1.00
2018-01-15T04:22:12.212Z,0.90
2018-01-15T04:24:39.979Z,1.03
2018-01-15T04:27:07.768Z,1.03
2018-01-15T04:29:36.347Z,0.87
2018-01-15T04:32:04.148Z,0.70
2018-01-15T04:34:32.001Z,0.80
2018-01-15T04:36:59.827Z,0.70
2018-01-15T04:39:27.639Z,0.73
2018-01-15T04:41:55.492Z,0.77
2018-01-15T04:44:24.098Z,0.80
2018-01-15T04:46:51.887Z,0.80
2018-01-15T04:49:19.656Z,1.23
2018-01-15T04:51:47.482Z,0.93
2018-01-15T04:54:15.278Z,0.80
2018-01-15T04:56:43.605Z,0.80
2018-01-15T04:59:11.388Z,0.67
2018-01-15T05:01:39.185Z,0.60
2018-01-15T05:04:07.782Z,0.60
2018-01-15T05:06:35.574Z,0.80
2018-01-15T05:09:04.939Z,0.73
2018-01-15T05:11:32.752Z,1.03
2018-01-15T05:14:00.514Z,0.80
2018-01-15T05:16:29.055Z,0.70
2018-01-15T05:18:56.896Z,0.73
2018-01-15T05:21:24.741Z,1.00
2018-01-15T05:23:52.538Z,0.60
2018-01-15T05:26:20.345Z,0.90
2018-01-15T05:28:48.886Z,0.70
2018-01-15T05:31:16.665Z,0.70
2018-01-15T05:33:44.435Z,1.00
2018-01-15T05:36:12.214Z,0.90
2018-01-15T05:38:40.095Z,1.10
2018-01-15T05:41:08.637Z,1.00
2018-01-15T05:43:36.426Z,0.87
2018-01-15T05:46:04.207Z,0.90
2018-01-15T05:48:32.756Z,1.00
2018-01-15T05:51:00.586Z,1.10
2018-01-15T05:53:28.370Z,1.40
2018-01-15T05:55:56.204Z,1.30
2018-01-15T05:58:24.005Z,0.80
2018-01-15T06:00:51.788Z,0.90
2018-01-15T06:03:19.631Z,0.90
2018-01-15T06:05:47.525Z,0.90
2018-01-15T06:08:15.370Z,1.30
2018-01-15T06:10:43.146Z,0.70
2018-01-15T06:13:10.911Z,0.80
2018-01-15T06:15:38.731Z,0.90
2018-01-15T06:18:06.495Z,0.90
2018-01-15T06:20:34.280Z,0.80
2018-01-15T06:23:02.123Z,0.80
2018-01-15T06:25:29.964Z,0.87
2018-01-15T06:27:58.607Z,0.77
2018-01-15T06:30:26.415Z,0.80
2018-01-15T06:32:54.970Z,1.00
2018-01-15T06:35:22.815Z,0.83
2018-01-15T06:37:50.592Z,0.97
2018-01-15T06:40:18.353Z,0.60
2018-01-15T06:42:46.130Z,0.60
2018-01-15T06:45:13.911Z,0.50
2018-01-15T06:47:42.495Z,0.80
2018-01-15T06:50:11.067Z,0.65
2018-01-15T06:52:38.828Z,0.83
2018-01-15T06:55:06.737Z,0.97
2018-01-15T06:57:34.536Z,0.70
2018-01-15T07:00:02.324Z,0.90
2018-01-15T07:02:30.115Z,0.60
2018-01-15T07:04:58.668Z,1.10
2018-01-15T07:07:26.485Z,1.10
2018-01-15T07:09:54.355Z,1.00
2018-01-15T07:12:22.127Z,1.17
2018-01-15T07:14:49.935Z,1.10
2018-01-15T07:17:17.728Z,1.10
2018-01-15T07:19:45.531Z,1.20
2018-01-15T07:22:13.360Z,1.33
2018-01-15T07:24:41.182Z,1.50
2018-01-15T07:27:09.018Z,1.20
2018-01-15T07:29:36.887Z,1.50
2018-01-15T07:32:04.659Z,1.87
2018-01-15T07:34:32.439Z,1.40
2018-01-15T07:37:00.252Z,1.87
2018-01-15T07:39:28.094Z,1.63
2018-01-15T07:41:56.738Z,2.00
2018-01-15T07:44:24.516Z,1.37
2018-01-15T07:46:52.330Z,0.87
2018-01-15T07:49:20.250Z,0.70
2018-01-15T07:51:48.041Z,0.80
2018-01-15T07:54:16.630Z,0.90
2018-01-15T07:56:44.435Z,0.90
2018-01-15T07:59:12.215Z,0.83
2018-01-15T08:01:39.971Z,1.13
2018-01-15T08:04:07.750Z,1.07
2018-01-15T08:06:35.605Z,1.50
2018-01-15T08:09:03.601Z,1.20
2018-01-15T08:11:32.179Z,1.13
2018-01-15T08:13:59.964Z,1.27
2018-01-15T08:16:28.554Z,2.10
2018-01-15T08:18:57.172Z,2.03
2018-01-15T08:21:24.943Z,1.80
2018-01-15T08:23:52.830Z,1.40
2018-01-15T08:26:20.643Z,1.03
2018-01-15T08:28:48.443Z,1.20
2018-01-15T08:31:16.283Z,1.27
2018-01-15T08:33:44.067Z,1.30
2018-01-15T08:36:11.961Z,1.40
2018-01-15T08:38:39.736Z,1.40
2018-01-15T08:41:07.582Z,1.20
2018-01-15T08:43:35.378Z,1.23
2018-01-15T08:46:03.920Z,1.10
2018-01-15T08:48:31.700Z,1.03
2018-01-15T08:50:59.466Z,0.97
2018-01-15T08:53:27.231Z,1.00
2018-01-15T08:55:55.053Z,0.83
2018-01-15T08:58:22.863Z,0.60
2018-01-15T09:00:50.698Z,0.83
2018-01-15T09:03:18.519Z,1.00
2018-01-15T09:05:47.071Z,1.00
2018-01-15T09:08:14.900Z,0.67
2018-01-15T09:10:42.731Z,1.10
2018-01-15T09:13:11.263Z,1.00
2018-01-15T09:15:39.063Z,0.70
2018-01-15T09:18:06.942Z,1.17
2018-01-15T09:20:35.485Z,1.10
2018-01-15T09:23:03.303Z,0.80
2018-01-15T09:25:31.835Z,0.90
2018-01-15T09:27:59.624Z,0.50
2018-01-15T09:30:27.415Z,0.53
2018-01-15T09:32:55.200Z,0.87
2018-01-15T09:35:22.963Z,0.60
2018-01-15T09:37:50.797Z,0.83
2018-01-15T09:40:19.348Z,0.60
2018-01-15T09:42:47.134Z,0.67
2018-01-15T09:45:14.950Z,0.93
2018-01-15T09:47:42.742Z,0.60
2018-01-15T09:50:11.530Z,0.50
2018-01-15T09:52:39.376Z,0.70
2018-01-15T09:55:07.170Z,0.60
2018-01-15T09:57:34.955Z,0.73
2018-01-15T10:00:02.740Z,0.60
2018-01-15T10:02:30.572Z,1.00
2018-01-15T10:04:59.159Z,0.50
2018-01-15T10:07:26.954Z,0.50
2018-01-15T10:09:54.742Z,0.50
2018-01-15T10:12:22.494Z,0.80
2018-01-15T10:14:50.295Z,0.63
2018-01-15T10:17:18.774Z,1.10
2018-01-15T10:19:46.552Z,0.70
2018-01-15T10:22:14.895Z,0.80
2018-01-15T10:24:42.738Z,1.02
2018-01-15T10:27:10.550Z,0.80
2018-01-15T10:29:38.382Z,0.90
2018-01-15T10:32:06.145Z,0.90
2018-01-15T10:34:33.936Z,0.83
2018-01-15T10:37:01.719Z,0.70
2018-01-15T10:39:29.498Z,0.80
2018-01-15T10:41:58.044Z,1.20
2018-01-15T10:44:25.840Z,0.83
2018-01-15T10:46:53.643Z,0.77
2018-01-15T10:49:21.417Z,0.77
2018-01-15T10:51:49.219Z,0.80
2018-01-15T10:54:16.995Z,0.97
2018-01-15T10:56:45.458Z,2.43
2018-01-15T10:59:13.255Z,1.40
2018-01-15T11:01:41.790Z,1.20
2018-01-15T11:04:09.572Z,1.30
2018-01-15T11:06:37.380Z,1.07
2018-01-15T11:09:05.294Z,1.40
2018-01-15T11:11:34.135Z,1.60
2018-01-15T11:14:01.891Z,1.40
2018-01-15T11:16:32.706Z,2.40
2018-01-15T11:19:00.491Z,1.47
2018-01-15T11:21:28.335Z,1.90
2018-01-15T11:23:56.151Z,1.43
2018-01-15T11:26:23.946Z,1.70
2018-01-15T11:28:51.761Z,1.80
2018-01-15T11:31:19.538Z,1.77
2018-01-15T11:33:47.314Z,2.10
2018-01-15T11:36:15.200Z,1.30
2018-01-15T11:38:42.963Z,1.23
2018-01-15T11:41:10.723Z,1.97
2018-01-15T11:43:38.519Z,1.70
2018-01-15T11:46:07.125Z,3.30
2018-01-15T11:48:34.967Z,2.07
2018-01-15T11:51:02.736Z,1.43
2018-01-15T11:53:31.315Z,1.30
2018-01-15T11:55:59.875Z,1.73
2018-01-15T11:58:28.874Z,1.57
2018-01-15T12:00:56.739Z,1.70
2018-01-15T12:03:24.566Z,1.50
2018-01-15T12:05:52.355Z,1.20
2018-01-15T12:08:20.115Z,2.30
2018-01-15T12:10:47.907Z,1.87
2018-01-15T12:13:15.727Z,1.63
2018-01-15T12:15:43.498Z,1.20
2018-01-15T12:18:11.271Z,0.80
2018-01-15T12:20:39.077Z,1.60
2018-01-15T12:23:07.646Z,0.90
2018-01-15T12:25:35.532Z,0.80
2018-01-15T12:28:04.063Z,0.80
2018-01-15T12:30:31.860Z,0.80
2018-01-15T12:32:59.675Z,0.90
2018-01-15T12:35:28.495Z,0.83
2018-01-15T12:37:57.339Z,0.87
2018-01-15T12:40:25.122Z,0.93
2018-01-15T12:42:52.886Z,0.63
2018-01-15T12:45:20.651Z,0.50
2018-01-15T12:47:48.430Z,0.80
2018-01-15T12:50:16.203Z,1.10
2018-01-15T12:52:43.982Z,0.77
2018-01-15T12:55:11.745Z,0.90
2018-01-15T12:57:39.587Z,0.90
2018-01-15T13:00:07.376Z,0.70
2018-01-15T13:02:35.176Z,1.33
2018-01-15T13:05:02.948Z,1.27
2018-01-15T13:07:42.631Z,1.33
2018-01-15T13:10:10.457Z,0.87
2018-01-15T13:12:38.229Z,1.10
2018-01-15T13:15:06.032Z,0.87
2018-01-15T13:17:33.807Z,2.67
2018-01-15T13:20:01.575Z,0.77
2018-01-15T13:22:29.379Z,0.93
2018-01-15T13:24:57.143Z,0.90
2018-01-15T13:27:24.910Z,0.67
2018-01-15T13:29:52.723Z,4.47
2018-01-15T13:32:20.574Z,2.10
2018-01-15T13:34:49.060Z,0.80
2018-01-15T13:37:16.855Z,2.57
2018-01-15T13:39:45.446Z,1.13
2018-01-15T13:42:14.010Z,0.80
2018-01-15T14:37:01.191Z,1.07
2018-01-15T14:39:29.055Z,1.20
2018-01-15T14:41:56.883Z,1.10
2018-01-15T14:44:24.761Z,1.03
2018-01-15T14:46:52.640Z,1.37
2018-01-15T14:49:20.520Z,1.83
2018-01-15T14:51:48.362Z,3.87
2018-01-15T14:54:16.192Z,1.17
2018-01-15T14:56:44.835Z,1.10
2018-01-15T14:59:12.691Z,6.53
2018-01-15T15:01:40.536Z,5.73
2018-01-15T15:04:08.445Z,1.70
2018-01-15T15:06:36.295Z,1.87
2018-01-15T15:09:04.228Z,1.00
2018-01-15T15:11:32.064Z,1.30
2018-01-15T15:14:00.746Z,1.80
2018-01-15T15:16:29.406Z,2.70
2018-01-15T15:18:57.252Z,3.17
2018-01-15T15:21:25.118Z,1.37
2018-01-15T15:23:52.964Z,1.03
2018-01-15T15:26:20.815Z,0.83
2018-01-15T15:28:48.699Z,2.10
2018-01-15T15:31:16.568Z,1.00
2018-01-15T15:33:44.985Z,1.27
2018-01-15T15:36:12.948Z,1.40
2018-01-15T15:38:40.789Z,1.60
2018-01-15T15:41:09.028Z,1.30
2018-01-15T15:43:37.649Z,1.30
2018-01-15T15:46:05.515Z,2.13
2018-01-15T15:48:33.377Z,2.00
2018-01-15T15:51:01.244Z,1.57
2018-01-15T15:53:29.156Z,1.73
2018-01-15T15:55:57.632Z,1.60
2018-01-15T15:58:25.505Z,2.20
2018-01-15T16:00:53.355Z,1.53
2018-01-15T16:03:21.277Z,1.30
2018-01-15T16:05:49.162Z,1.77
2018-01-15T16:08:17.054Z,1.23
2018-01-15T16:10:45.008Z,1.53
2018-01-15T16:13:12.946Z,1.70
2018-01-15T16:15:40.797Z,1.40
2018-01-15T16:18:09.427Z,1.80
2018-01-15T16:20:37.285Z,1.10
2018-01-15T16:23:05.135Z,1.40
2018-01-15T16:25:33.065Z,1.40
2018-01-15T16:28:01.663Z,2.10
2018-01-15T16:30:30.263Z,1.87
2018-01-15T16:32:58.108Z,2.00
2018-01-15T16:35:26.760Z,1.53
2018-01-15T16:37:54.596Z,2.10
2018-01-15T16:40:22.453Z,2.00
2018-01-15T16:42:50.288Z,1.80
2018-01-15T16:45:18.884Z,1.87
2018-01-15T16:47:46.716Z,2.23
2018-01-15T16:50:20.227Z,1.60
2018-01-15T16:52:48.049Z,1.97
2018-01-15T16:55:15.900Z,1.90
2018-01-15T16:57:43.745Z,2.00
2018-01-15T17:00:11.619Z,1.83
2018-01-15T17:02:39.507Z,1.50
2018-01-15T17:05:07.969Z,2.47
2018-01-15T17:07:36.019Z,1.47
2018-01-15T17:10:03.970Z,3.67
2018-01-15T17:12:31.838Z,2.00
2018-01-15T17:15:00.521Z,2.10
2018-01-15T17:17:28.463Z,2.50
2018-01-15T17:19:56.342Z,2.27
2018-01-15T17:22:24.260Z,1.80
2018-01-15T17:24:52.734Z,1.70
2018-01-15T17:27:20.607Z,1.90
2018-01-15T17:29:48.692Z,2.17
2018-01-15T17:32:16.549Z,1.90
2018-01-15T17:34:45.292Z,2.20
2018-01-15T17:37:13.148Z,2.07
2018-01-15T17:39:41.047Z,2.33
2018-01-15T17:42:10.218Z,2.37
2018-01-15T17:44:38.096Z,2.10
2018-01-15T17:47:07.704Z,2.23
2018-01-15T17:49:37.264Z,1.80
2018-01-15T17:52:05.239Z,2.03
2018-01-15T17:54:33.209Z,1.60
2018-01-15T17:57:01.195Z,2.77
2018-01-15T17:59:29.138Z,3.03
2018-01-15T18:01:58.036Z,2.57
2018-01-15T18:04:26.801Z,2.80
2018-01-15T18:06:54.752Z,2.67
2018-01-15T18:09:22.774Z,3.00
2018-01-15T18:11:50.652Z,3.17
2018-01-15T18:14:18.529Z,2.90
2018-01-15T18:16:47.173Z,2.73
2018-01-15T18:19:15.064Z,2.10
2018-01-15T18:21:42.934Z,2.10
2018-01-15T18:24:10.872Z,1.80
2018-01-15T18:26:39.492Z,2.77
2018-01-15T18:29:07.471Z,2.10
2018-01-15T18:31:35.493Z,2.50
2018-01-15T18:34:03.974Z,2.83
2018-01-15T18:36:32.278Z,1.97
2018-01-15T18:39:00.224Z,2.30
2018-01-15T18:41:28.086Z,2.10
2018-01-15T18:43:56.032Z,2.57
2018-01-15T18:46:23.960Z,2.30
2018-01-15T18:48:51.885Z,2.53
2018-01-15T18:51:20.287Z,2.10
2018-01-15T18:53:50.547Z,3.33
2018-01-15T18:56:18.793Z,3.40
2018-01-15T18:58:46.845Z,2.67
2018-01-15T19:01:14.809Z,3.10
2018-01-15T19:03:42.656Z,1.70
2018-01-15T19:06:10.613Z,2.07
2018-01-15T19:08:38.505Z,1.83
2018-01-15T19:11:07.777Z,2.83
2018-01-15T19:13:35.763Z,2.40
2018-01-15T19:16:03.646Z,2.43
2018-01-15T19:18:31.517Z,3.00
2018-01-15T19:20:59.373Z,1.80
2018-01-15T19:23:27.224Z,2.27
2018-01-15T19:25:56.227Z,1.70
2018-01-15T19:28:24.185Z,1.73
2018-01-15T19:30:53.268Z,2.60
2018-01-15T19:33:21.872Z,2.23
2018-01-15T19:35:52.794Z,2.00
2018-01-15T19:38:21.630Z,2.23
2018-01-15T19:40:50.120Z,1.87
2018-01-15T19:43:32.840Z,2.20
2018-01-15T19:46:06.168Z,1.83
2018-01-15T19:48:39.733Z,2.20
2018-01-15T19:51:13.931Z,2.60
2018-01-15T19:53:47.598Z,2.23
2018-01-15T19:56:21.232Z,2.60
2018-01-15T19:59:03.994Z,3.20
2018-01-15T20:01:37.462Z,2.60
2018-01-15T20:04:10.828Z,2.70
2018-01-15T20:06:44.284Z,2.15
2018-01-15T20:09:17.678Z,2.40
2018-01-15T20:11:45.703Z,2.60
2018-01-15T20:14:13.806Z,3.00
2018-01-15T20:16:43.573Z,2.60
2018-01-15T20:19:11.770Z,1.90
2018-01-15T20:21:39.671Z,3.03
2018-01-15T20:24:07.533Z,2.87
2018-01-15T20:26:36.154Z,2.13
2018-01-15T20:29:04.085Z,1.90
2018-01-15T20:31:32.695Z,2.70
2018-01-15T20:34:01.556Z,2.23
2018-01-15T20:36:30.152Z,2.30
2018-01-15T20:38:57.990Z,3.30
2018-01-15T20:41:26.020Z,2.80
2018-01-15T20:43:53.848Z,3.10
2018-01-15T20:46:21.722Z,4.43
2018-01-15T20:48:49.552Z,5.13
2018-01-15T20:51:17.475Z,5.70
2018-01-15T20:53:45.479Z,4.00
2018-01-15T20:56:13.416Z,10.30
2018-01-15T20:58:42.171Z,20.13
2018-01-15T21:01:10.935Z,17.10
2018-01-15T21:03:40.089Z,17.40
2018-01-15T21:06:07.984Z,15.53
2018-01-15T21:08:35.869Z,7.30
2018-01-15T21:13:58.505Z,5.90
2018-01-15T21:16:27.100Z,2.93
2018-01-15T21:18:55.800Z,3.03
2018-01-15T21:21:24.454Z,2.90
2018-01-15T21:23:52.600Z,3.13
2018-01-15T21:26:20.621Z,2.77
2018-01-15T21:28:49.781Z,2.17
2018-01-15T21:31:19.188Z,2.37
2018-01-15T21:33:48.427Z,2.10
2018-01-15T21:36:17.045Z,2.50
2018-01-15T23:28:33.537Z,2.57
2018-01-15T23:31:02.153Z,2.47
2018-01-15T23:33:29.986Z,2.20
2018-01-15T23:35:58.537Z,2.40
2018-01-15T23:38:26.326Z,2.20
2018-01-15T23:40:54.129Z,2.20
2018-01-15T23:43:21.915Z,1.87
2018-01-15T23:45:49.695Z,1.60
2018-01-15T23:48:17.465Z,1.87
2018-01-15T23:50:45.316Z,1.70
2018-01-15T23:53:13.090Z,2.03
2018-01-15T23:55:40.860Z,2.10
2018-01-15T23:58:08.693Z,2.33
